Time;durP1;ratioP1;P1;durP2;ratioP2;P2;SDS_P1;SDS_P2;PMS_P1;PMS_P2;Temp;Humidity;BMP_temperature;BMP_pressure;BME280_temperature;BME280_humidity;BME280_pressure;Samples;Min_cycle;Max_cycle;Signal;HPM_P1;HPM_P2
2023/03/02 00:02:00;;;;;;;3.22;2.08;;;-2.40;98.40;;;;;;5054707;28;20021;-80
2023/03/02 00:04:55;;;;;;;5.40;3.15;;;-2.40;98.50;;;;;;5052256;28;20083;-80
2023/03/02 00:07:30;;;;;;;4.35;2.42;;;-2.50;98.50;;;;;;5047010;28;20033;-80
2023/03/02 00:09:57;;;;;;;6.15;2.33;;;-2.50;98.50;;;;;;5045286;28;20537;-80
2023/03/02 00:12:26;;;;;;;7.00;3.07;;;-2.50;98.60;;;;;;5053955;28;20466;-80
2023/03/02 00:14:52;;;;;;;3.88;2.75;;;-2.50;98.60;;;;;;5053215;28;20710;-81
2023/03/02 00:17:17;;;;;;;4.90;1.90;;;-2.40;98.60;;;;;;5053294;28;20028;-79
2023/03/02 00:19:43;;;;;;;6.22;2.30;;;-2.50;98.50;;;;;;5053705;28;20017;-79
2023/03/02 00:22:09;;;;;;;5.72;2.17;;;-2.50;98.60;;;;;;5053720;28;20029;-79
2023/03/02 00:24:35;;;;;;;4.75;2.58;;;-2.50;98.60;;;;;;5035602;28;20042;-79
2023/03/02 00:27:01;;;;;;;5.03;2.40;;;-2.50;98.60;;;;;;5011320;28;20122;-78
2023/03/02 00:29:27;;;;;;;4.30;2.85;;;-2.60;98.70;;;;;;5004166;28;20037;-79
2023/03/02 00:31:53;;;;;;;3.88;2.03;;;-2.50;98.70;;;;;;4995976;28;20133;-78
2023/03/02 00:34:19;;;;;;;4.30;2.05;;;-2.50;99.00;;;;;;5011032;28;20041;-80
2023/03/02 00:36:48;;;;;;;7.88;2.67;;;-2.50;98.70;;;;;;5011069;28;20052;-79
2023/03/02 00:39:14;;;;;;;4.32;2.13;;;-2.50;98.50;;;;;;5010896;28;20550;-79
2023/03/02 00:41:42;;;;;;;5.80;2.78;;;-2.50;98.30;;;;;;5011151;28;20057;-79
2023/03/02 00:44:08;;;;;;;5.35;1.92;;;-2.40;98.20;;;;;;5011204;28;20116;-79
2023/03/02 00:46:36;;;;;;;3.47;1.88;;;-2.50;98.40;;;;;;5010545;28;20073;-80
2023/03/02 00:49:02;;;;;;;9.07;2.38;;;-2.50;98.00;;;;;;5010866;28;20487;-80
2023/03/02 00:51:28;;;;;;;4.05;1.77;;;-2.40;97.80;;;;;;5010962;28;20045;-80
2023/03/02 00:53:54;;;;;;;3.50;1.67;;;-2.40;97.60;;;;;;4994492;28;20022;-81
2023/03/02 00:56:20;;;;;;;3.47;2.03;;;-2.40;97.30;;;;;;5010539;28;20049;-80
2023/03/02 00:58:45;;;;;;;3.00;1.85;;;-2.40;97.00;;;;;;5010350;28;20125;-80
2023/03/02 01:01:12;;;;;;;5.43;2.05;;;-2.40;96.50;;;;;;5010526;28;20060;-80
2023/03/02 01:03:38;;;;;;;6.78;2.25;;;-2.40;96.30;;;;;;5017247;28;20537;-81
2023/03/02 01:06:05;;;;;;;6.00;2.58;;;-2.40;96.10;;;;;;5052668;28;20087;-79
2023/03/02 01:08:31;;;;;;;4.07;1.88;;;-2.40;96.00;;;;;;5052088;28;20078;-80
2023/03/02 01:11:00;;;;;;;3.25;1.80;;;-2.60;95.80;;;;;;5055469;28;20024;-80
2023/03/02 01:13:26;;;;;;;3.55;1.83;;;-2.60;95.50;;;;;;5052460;28;20047;-79
2023/03/02 01:16:01;;;;;;;3.17;1.70;;;-2.80;95.30;;;;;;5052935;28;20085;-80
2023/03/02 01:18:27;;;;;;;4.55;1.75;;;-2.80;95.30;;;;;;5056567;28;20047;-79
2023/03/02 01:21:04;;;;;;;3.42;1.90;;;-2.80;95.20;;;;;;5052193;28;20474;-80
2023/03/02 01:23:30;;;;;;;3.15;1.63;;;-2.80;95.30;;;;;;5052676;28;20052;-79
2023/03/02 01:25:56;;;;;;;4.57;2.30;;;-2.70;95.30;;;;;;5049196;28;20438;-80
2023/03/02 01:28:22;;;;;;;3.15;1.98;;;-2.60;95.40;;;;;;5033653;28;20025;-79
2023/03/02 01:30:48;;;;;;;4.57;1.83;;;-2.60;95.20;;;;;;5050777;28;20025;-80
2023/03/02 01:33:14;;;;;;;3.42;1.55;;;-2.60;95.10;;;;;;5052371;28;20017;-80
2023/03/02 01:35:40;;;;;;;5.63;1.92;;;-2.60;95.00;;;;;;5052445;28;20036;-80
2023/03/02 01:38:06;;;;;;;9.35;3.22;;;-2.60;95.00;;;;;;5055671;28;20021;-80
2023/03/02 01:40:31;;;;;;;4.75;1.58;;;-2.50;95.10;;;;;;5064161;28;20033;-78
2023/03/02 01:43:03;;;;;;;3.55;1.48;;;-2.50;95.00;;;;;;5052806;28;20028;-79
2023/03/02 01:46:11;;;;;;;2.92;1.67;;;-2.60;94.60;;;;;;5051430;28;20033;-79
2023/03/02 01:48:53;;;;;;;2.00;1.20;;;-2.70;94.40;;;;;;5036170;28;20136;-79
2023/03/02 01:51:25;;;;;;;3.65;1.80;;;-2.90;94.40;;;;;;5035014;28;20021;-79
2023/03/02 01:53:59;;;;;;;2.17;1.98;;;-3.00;94.40;;;;;;5055823;28;20386;-80
2023/03/02 01:56:38;;;;;;;2.67;1.50;;;-3.10;94.40;;;;;;5054430;28;20429;-80
2023/03/02 01:59:09;;;;;;;3.28;1.77;;;-3.00;94.50;;;;;;5064252;28;20025;-78
2023/03/02 02:01:38;;;;;;;3.63;1.58;;;-3.00;94.60;;;;;;5033658;28;20079;-80
2023/03/02 02:04:05;;;;;;;2.78;1.48;;;-3.00;94.60;;;;;;5050814;28;20017;-81
2023/03/02 02:06:36;;;;;;;1.80;1.40;;;-2.90;94.50;;;;;;5051743;28;20033;-80
2023/03/02 02:09:04;;;;;;;5.18;2.00;;;-2.90;94.40;;;;;;5051983;28;20359;-79
2023/03/02 02:11:30;;;;;;;4.78;3.00;;;-2.90;94.40;;;;;;5048512;28;20112;-79
2023/03/02 02:13:58;;;;;;;3.97;1.70;;;-2.90;94.40;;;;;;5052136;28;20037;-80
2023/03/02 02:16:26;;;;;;;2.70;1.65;;;-2.90;94.30;;;;;;5051856;28;20024;-80
2023/03/02 02:18:52;;;;;;;2.60;1.60;;;-3.00;94.30;;;;;;5034616;28;20029;-80
2023/03/02 02:21:20;;;;;;;4.75;2.22;;;-3.00;94.40;;;;;;5042272;28;20116;-81
2023/03/02 02:24:11;;;;;;;3.03;1.70;;;-3.00;94.40;;;;;;5034926;28;20390;-79
2023/03/02 02:26:49;;;;;;;2.88;1.80;;;-3.00;94.30;;;;;;5041251;28;20044;-79
2023/03/02 02:29:21;;;;;;;5.43;2.35;;;-3.00;94.20;;;;;;5048091;28;20021;-78
2023/03/02 02:31:50;;;;;;;3.78;1.90;;;-3.00;94.10;;;;;;5061680;28;20021;-79
2023/03/02 02:34:55;;;;;;;3.78;1.73;;;-3.00;94.10;;;;;;5056904;28;20021;-79
2023/03/02 02:37:28;;;;;;;6.63;2.00;;;-3.00;94.30;;;;;;5043408;28;20065;-78
2023/03/02 02:39:55;;;;;;;2.92;1.88;;;-2.90;94.50;;;;;;5051679;28;20372;-80
2023/03/02 02:42:29;;;;;;;6.30;2.33;;;-2.90;94.10;;;;;;5037326;28;20104;-78
2023/03/02 02:44:57;;;;;;;2.72;1.73;;;-2.90;94.20;;;;;;5051427;28;20056;-78
2023/03/02 02:47:23;;;;;;;2.90;1.73;;;-2.90;94.20;;;;;;5037165;28;20036;-80
2023/03/02 02:49:53;;;;;;;2.30;1.42;;;-2.90;94.20;;;;;;5033607;28;20509;-79
2023/03/02 02:52:22;;;;;;;5.47;1.95;;;-2.90;94.10;;;;;;5051237;28;20017;-79
2023/03/02 02:54:50;;;;;;;3.13;1.77;;;-2.90;94.20;;;;;;5046625;28;20021;-78
2023/03/02 02:57:18;;;;;;;2.65;1.55;;;-2.90;94.30;;;;;;5037001;28;20535;-80
2023/03/02 02:59:51;;;;;;;6.88;1.73;;;-2.80;94.30;;;;;;5053078;28;20013;-79
2023/03/02 03:02:22;;;;;;;1.67;1.42;;;-2.90;94.10;;;;;;5017496;28;20030;-79
2023/03/02 03:04:48;;;;;;;3.45;2.10;;;-2.90;93.90;;;;;;5022567;28;20029;-79
2023/03/02 03:07:24;;;;;;;4.80;1.75;;;-2.90;93.90;;;;;;5047720;28;20036;-78
2023/03/02 03:10:18;;;;;;;4.15;1.30;;;-3.00;94.00;;;;;;5049174;28;20029;-79
2023/03/02 03:12:45;;;;;;;3.03;1.48;;;-3.10;94.00;;;;;;5054040;28;20026;-81
2023/03/02 03:15:12;;;;;;;3.47;1.77;;;-3.10;94.00;;;;;;5064577;28;20045;-78
2023/03/02 03:17:38;;;;;;;5.70;1.77;;;-3.10;94.10;;;;;;5056299;28;20029;-78
2023/03/02 03:20:05;;;;;;;3.42;1.92;;;-3.10;94.30;;;;;;5055615;28;20029;-78
2023/03/02 03:22:33;;;;;;;3.40;1.73;;;-3.10;94.50;;;;;;5056448;28;20079;-80
2023/03/02 03:24:59;;;;;;;3.47;2.00;;;-3.10;94.30;;;;;;5059281;28;20032;-80
2023/03/02 03:27:25;;;;;;;1.95;1.45;;;-3.10;94.40;;;;;;5043552;28;20466;-81
2023/03/02 03:29:51;;;;;;;3.30;2.47;;;-3.10;94.40;;;;;;5052973;28;20021;-80
2023/03/02 03:32:18;;;;;;;6.70;2.03;;;-3.10;94.50;;;;;;5054954;28;20488;-79
2023/03/02 03:34:44;;;;;;;2.63;1.93;;;-3.20;94.30;;;;;;5033000;28;20026;-80
2023/03/02 03:37:14;;;;;;;6.05;2.17;;;-3.10;94.30;;;;;;5054397;28;20025;-80
2023/03/02 03:39:40;;;;;;;2.50;1.60;;;-3.20;94.20;;;;;;5054404;28;20067;-78
2023/03/02 03:42:06;;;;;;;1.83;1.58;;;-3.20;93.90;;;;;;5051246;28;20428;-80
2023/03/02 03:44:32;;;;;;;1.58;1.20;;;-3.20;93.60;;;;;;5036332;28;20025;-79
2023/03/02 03:46:58;;;;;;;4.50;1.83;;;-3.20;93.70;;;;;;5054122;28;20090;-79
2023/03/02 03:49:24;;;;;;;2.00;1.40;;;-3.20;93.80;;;;;;5050504;28;20072;-79
2023/03/02 03:51:50;;;;;;;2.83;1.95;;;-3.20;93.60;;;;;;5045977;28;20036;-78
2023/03/02 03:54:16;;;;;;;3.45;1.92;;;-3.10;93.60;;;;;;5053834;28;20017;-79
2023/03/02 03:56:46;;;;;;;3.97;1.90;;;-3.10;93.60;;;;;;5035753;28;20493;-80
2023/03/02 03:59:16;;;;;;;5.38;2.20;;;-3.10;93.50;;;;;;5051644;28;20111;-79
2023/03/02 04:01:45;;;;;;;2.58;1.25;;;-3.10;93.50;;;;;;5015189;28;20073;-79
2023/03/02 04:04:17;;;;;;;3.22;1.83;;;-3.00;93.40;;;;;;5032762;28;20445;-80
2023/03/02 04:06:43;;;;;;;1.55;1.20;;;-3.00;93.70;;;;;;5031919;28;20597;-79
2023/03/02 04:09:11;;;;;;;6.75;1.92;;;-3.00;93.30;;;;;;5048237;28;20055;-78
2023/03/02 04:11:39;;;;;;;2.70;2.08;;;-3.00;93.20;;;;;;5041702;28;20024;-79
2023/03/02 04:14:06;;;;;;;2.05;1.27;;;-3.00;93.20;;;;;;5038931;28;20087;-79
2023/03/02 04:16:33;;;;;;;2.70;1.83;;;-3.00;93.10;;;;;;5053721;28;20017;-81
2023/03/02 04:18:59;;;;;;;5.07;2.05;;;-3.10;92.40;;;;;;5038151;28;20030;-79
2023/03/02 04:21:25;;;;;;;4.97;1.35;;;-3.10;92.60;;;;;;5028118;28;20022;-79
2023/03/02 04:23:51;;;;;;;2.22;1.13;;;-3.20;92.70;;;;;;5043015;28;20017;-81
2023/03/02 04:26:17;;;;;;;2.60;1.17;;;-3.20;92.70;;;;;;5051974;28;20039;-79
2023/03/02 04:28:44;;;;;;;4.78;1.70;;;-3.20;92.80;;;;;;5040975;28;20052;-80
2023/03/02 04:31:41;;;;;;;4.18;1.10;;;-3.30;92.80;;;;;;5053744;28;20036;-81
2023/03/02 04:34:08;;;;;;;3.85;1.23;;;-3.30;92.90;;;;;;5013303;28;20510;-80
2023/03/02 04:36:36;;;;;;;3.70;1.80;;;-3.30;92.70;;;;;;5049336;28;20412;-80
2023/03/02 04:39:04;;;;;;;2.50;1.30;;;-3.30;92.80;;;;;;5036861;28;20037;-80
2023/03/02 04:41:30;;;;;;;1.63;1.23;;;-3.40;92.90;;;;;;5038274;28;20012;-79
2023/03/02 04:43:56;;;;;;;2.10;1.40;;;-3.30;92.90;;;;;;5055584;28;20029;-79
2023/03/02 04:46:25;;;;;;;4.70;1.48;;;-3.30;93.00;;;;;;5046288;28;20179;-78
2023/03/02 04:48:51;;;;;;;5.00;2.20;;;-3.30;92.80;;;;;;5048008;28;20021;-79
2023/03/02 04:51:27;;;;;;;3.45;1.45;;;-3.30;92.80;;;;;;5054671;28;20017;-79
2023/03/02 04:54:00;;;;;;;2.25;1.63;;;-3.30;92.90;;;;;;5035997;28;20362;-80
2023/03/02 04:56:26;;;;;;;1.60;1.13;;;-3.30;92.90;;;;;;5053346;28;20021;-80
2023/03/02 04:58:52;;;;;;;2.78;1.30;;;-3.30;92.80;;;;;;5053745;28;20032;-80
2023/03/02 05:01:19;;;;;;;2.22;1.27;;;-3.20;92.90;;;;;;5060146;28;20134;-80
2023/03/02 05:03:45;;;;;;;3.53;2.25;;;-3.30;92.90;;;;;;5056419;28;20010;-79
2023/03/02 05:06:12;;;;;;;3.90;1.80;;;-3.20;92.80;;;;;;5052550;28;20067;-80
2023/03/02 05:08:38;;;;;;;3.30;2.17;;;-3.30;92.70;;;;;;5056874;28;20096;-80
2023/03/02 05:11:06;;;;;;;3.53;2.38;;;-3.30;92.90;;;;;;5045732;28;20029;-80
2023/03/02 05:13:33;;;;;;;6.05;2.20;;;-3.30;93.00;;;;;;5034363;28;20406;-80
2023/03/02 05:16:00;;;;;;;3.83;1.65;;;-3.30;93.20;;;;;;5052457;28;20118;-80
2023/03/02 05:18:26;;;;;;;3.67;2.50;;;-3.30;93.30;;;;;;5053528;28;20390;-79
2023/03/02 05:20:53;;;;;;;7.60;2.47;;;-3.30;93.20;;;;;;5041201;28;20415;-80
2023/03/02 05:23:23;;;;;;;5.10;2.03;;;-3.30;93.10;;;;;;5034344;28;20114;-81
2023/03/02 05:25:53;;;;;;;3.53;1.58;;;-3.40;93.20;;;;;;5052120;28;20382;-82
2023/03/02 05:28:21;;;;;;;3.92;2.28;;;-3.40;93.30;;;;;;5046983;28;20043;-81
2023/03/02 05:30:47;;;;;;;;;;;-3.30;93.50;;;;;;5037340;28;20029;-80
2023/03/02 05:33:13;;;;;;;4.60;3.42;;;-3.30;93.40;;;;;;5019342;28;19905;-81
2023/03/02 05:35:39;;;;;;;2.13;1.63;;;-3.20;93.40;;;;;;5032134;28;20029;-80
2023/03/02 05:38:05;;;;;;;2.42;1.58;;;-3.20;93.40;;;;;;5043043;28;20021;-79
2023/03/02 05:40:31;;;;;;;3.63;1.95;;;-3.20;93.40;;;;;;5052008;28;20028;-79
2023/03/02 05:42:58;;;;;;;2.95;2.53;;;-3.20;93.40;;;;;;5052472;28;20029;-81
2023/03/02 05:45:27;;;;;;;5.40;1.98;;;-3.20;93.50;;;;;;5034649;28;20028;-79
2023/03/02 05:47:53;;;;;;;3.10;2.25;;;-3.10;93.50;;;;;;5040306;28;20037;-79
2023/03/02 05:50:20;;;;;;;5.57;1.48;;;-3.10;93.40;;;;;;5045985;28;20036;-81
2023/03/02 05:52:46;;;;;;;5.32;2.35;;;-3.10;93.10;;;;;;5035221;28;20032;-79
2023/03/02 05:55:13;;;;;;;7.07;2.67;;;-3.10;93.60;;;;;;5034861;28;20584;-81
2023/03/02 05:57:40;;;;;;;3.85;2.08;;;-3.10;93.60;;;;;;5035945;28;20026;-79
2023/03/02 06:00:09;;;;;;;3.15;2.03;;;-3.00;93.80;;;;;;5045008;28;20378;-80
2023/03/02 06:02:36;;;;;;;3.10;1.98;;;-3.10;94.00;;;;;;5016342;28;20036;-81
2023/03/02 06:05:03;;;;;;;2.60;1.92;;;-3.10;94.10;;;;;;5043825;28;20075;-79
2023/03/02 06:07:28;;;;;;;3.47;2.30;;;-3.00;94.30;;;;;;5031649;28;20116;-80
2023/03/02 06:09:54;;;;;;;6.00;2.28;;;-3.00;94.10;;;;;;5022846;28;20060;-79
2023/03/02 06:12:20;;;;;;;9.57;2.30;;;-3.00;94.10;;;;;;5028101;28;20480;-78
2023/03/02 06:14:46;;;;;;;3.08;2.10;;;-3.00;94.10;;;;;;5054235;28;20041;-78
2023/03/02 06:17:12;;;;;;;5.15;2.63;;;-3.00;94.30;;;;;;5055951;28;20036;-79
2023/03/02 06:19:38;;;;;;;7.95;3.00;;;-2.90;94.30;;;;;;5022823;28;20029;-80
2023/03/02 06:22:06;;;;;;;3.97;2.42;;;-2.90;94.30;;;;;;5040233;28;20024;-79
2023/03/02 06:24:32;;;;;;;5.43;2.88;;;-2.80;94.40;;;;;;5024459;28;20061;-79
2023/03/02 06:26:58;;;;;;;4.15;2.35;;;-2.70;94.60;;;;;;5016378;28;20511;-78
2023/03/02 06:29:24;;;;;;;7.20;3.38;;;-2.40;94.50;;;;;;5026638;28;20025;-79
2023/03/02 06:31:50;;;;;;;4.05;2.22;;;-2.40;94.10;;;;;;5020456;28;20037;-80
2023/03/02 06:34:16;;;;;;;5.68;1.98;;;-2.20;94.30;;;;;;5053580;28;20021;-78
2023/03/02 06:36:41;;;;;;;4.75;3.10;;;-2.00;94.20;;;;;;5050073;28;20045;-80
2023/03/02 06:39:14;;;;;;;5.30;3.00;;;-1.90;93.90;;;;;;5006966;28;20075;-79
2023/03/02 06:41:45;;;;;;;3.95;2.35;;;-1.80;93.90;;;;;;5038037;28;20021;-78
2023/03/02 06:44:11;;;;;;;6.50;3.92;;;-1.70;93.80;;;;;;5018408;28;20056;-78
2023/03/02 06:46:38;;;;;;;4.70;2.60;;;-1.60;93.80;;;;;;5039461;28;20099;-79
2023/03/02 06:49:05;;;;;;;8.18;3.03;;;-1.30;93.60;;;;;;5043129;28;20103;-80
2023/03/02 06:51:32;;;;;;;5.65;2.97;;;-1.30;93.20;;;;;;5024012;28;20053;-80
2023/03/02 06:53:58;;;;;;;4.63;2.92;;;-1.10;93.30;;;;;;5044547;28;20091;-79
2023/03/02 06:56:24;;;;;;;4.60;2.40;;;-1.00;92.70;;;;;;5024753;28;20025;-78
2023/03/02 06:58:50;;;;;;;5.25;2.30;;;-0.90;92.30;;;;;;5041345;28;20167;-79
2023/03/02 07:01:16;;;;;;;4.75;2.88;;;-0.80;92.10;;;;;;5039419;28;20022;-79
2023/03/02 07:03:42;;;;;;;4.18;2.38;;;-0.90;91.70;;;;;;5020953;28;20120;-80
2023/03/02 07:06:10;;;;;;;4.28;2.25;;;-0.80;91.40;;;;;;5038083;28;20062;-80
2023/03/02 07:08:36;;;;;;;4.90;3.28;;;-0.90;91.00;;;;;;5039112;28;20546;-80
2023/03/02 07:11:10;;;;;;;7.28;2.05;;;-0.80;90.90;;;;;;5037297;28;20049;-80
2023/03/02 07:13:37;;;;;;;4.85;2.53;;;-0.80;90.60;;;;;;5031959;28;20494;-78
2023/03/02 07:16:11;;;;;;;5.18;2.53;;;-0.80;90.50;;;;;;5054917;28;20025;-80
2023/03/02 07:18:37;;;;;;;4.88;2.17;;;-0.80;90.20;;;;;;5056272;28;20504;-79
2023/03/02 07:21:03;;;;;;;6.90;2.58;;;-0.90;88.90;;;;;;5055604;28;20032;-80
2023/03/02 07:23:31;;;;;;;6.78;4.15;;;-0.90;89.80;;;;;;5038745;28;20025;-78
2023/03/02 07:26:18;;;;;;;4.55;2.53;;;-0.90;90.10;;;;;;5057224;28;20025;-78
2023/03/02 07:32:32;;;;;;;;;;;;;;;;;;;;;
2023/03/02 07:35:15;;;;;;;4.55;2.83;;;-1.10;89.70;;;;;;5056190;28;20359;-79
2023/03/02 07:37:45;;;;;;;7.10;3.03;;;-1.20;90.00;;;;;;5043671;28;20021;-79
2023/03/02 07:40:14;;;;;;;4.95;2.70;;;-1.20;90.10;;;;;;5064546;28;20025;-79
2023/03/02 07:42:40;;;;;;;7.13;3.45;;;-1.20;90.10;;;;;;5057300;28;20020;-80
2023/03/02 07:45:23;;;;;;;6.60;3.22;;;-1.20;89.50;;;;;;5055979;28;20073;-79
2023/03/02 07:50:38;;;;;;;5.90;2.38;;;-1.30;88.50;;;;;;5054581;28;20112;-77
2023/03/02 07:53:04;;;;;;;4.70;1.80;;;-1.30;88.40;;;;;;5037735;28;20028;-79
2023/03/02 07:55:33;;;;;;;3.42;2.72;;;-1.40;87.30;;;;;;5037064;28;20025;-78
2023/03/02 07:57:59;;;;;;;3.30;2.13;;;-1.40;87.00;;;;;;5055906;28;20600;-79
2023/03/02 08:00:25;;;;;;;5.43;2.08;;;-1.30;86.50;;;;;;5055193;28;20074;-80
2023/03/02 08:02:51;;;;;;;4.35;2.47;;;-1.20;85.90;;;;;;5054528;28;20454;-78
2023/03/02 08:05:17;;;;;;;4.07;1.70;;;-1.10;86.40;;;;;;5053517;28;20035;-79
2023/03/02 08:07:44;;;;;;;2.55;1.85;;;-0.80;85.20;;;;;;5054294;28;20040;-78
2023/03/02 08:10:11;;;;;;;3.40;2.15;;;-0.70;83.30;;;;;;5054623;28;20055;-78
2023/03/02 08:12:37;;;;;;;2.78;1.80;;;-0.60;82.80;;;;;;5054229;28;20078;-79
2023/03/02 08:15:03;;;;;;;1.92;1.73;;;-0.60;81.70;;;;;;5054856;28;20041;-78
2023/03/02 08:17:29;;;;;;;3.72;2.40;;;-0.50;81.60;;;;;;5037190;28;20486;-78
2023/03/02 08:19:55;;;;;;;4.65;2.05;;;-0.50;81.60;;;;;;5055631;28;20094;-79
2023/03/02 08:22:21;;;;;;;4.35;2.10;;;-0.50;80.80;;;;;;5047558;28;20017;-80
2023/03/02 08:24:47;;;;;;;3.58;2.70;;;-0.60;81.90;;;;;;5036221;28;20111;-78
2023/03/02 08:27:14;;;;;;;3.85;1.67;;;-0.50;82.30;;;;;;5050569;28;20068;-79
2023/03/02 08:29:40;;;;;;;;;;;-0.50;80.90;;;;;;5062160;28;20040;-80
2023/03/02 08:32:06;;;;;;;6.15;3.70;;;-0.60;81.20;;;;;;5041300;28;20011;-79
2023/03/02 08:34:32;;;;;;;3.65;2.00;;;-0.70;81.20;;;;;;5054561;28;20036;-78
2023/03/02 08:36:58;;;;;;;4.45;2.30;;;-0.60;81.50;;;;;;5039770;28;20108;-79
2023/03/02 08:39:24;;;;;;;6.78;2.95;;;-0.50;81.90;;;;;;5051147;28;20028;-79
2023/03/02 08:41:51;;;;;;;5.82;2.80;;;-0.40;81.60;;;;;;5053608;28;20020;-79
2023/03/02 08:44:19;;;;;;;12.55;5.75;;;-0.30;81.40;;;;;;5053448;28;20079;-79
2023/03/02 08:46:45;;;;;;;5.35;2.75;;;-0.20;80.80;;;;;;5053659;28;20048;-78
2023/03/02 08:49:11;;;;;;;2.95;1.90;;;-0.20;80.20;;;;;;5053743;28;20017;-78
2023/03/02 08:51:37;;;;;;;2.92;2.03;;;-0.20;80.00;;;;;;5053603;28;20473;-80
2023/03/02 08:54:03;;;;;;;4.03;2.50;;;-0.20;80.00;;;;;;5056221;28;20590;-80
2023/03/02 08:56:32;;;;;;;8.73;2.85;;;-0.20;78.70;;;;;;5039124;28;20033;-78
2023/03/02 08:59:02;;;;;;;2.95;1.92;;;-0.30;79.20;;;;;;5037592;28;20084;-79
2023/03/02 09:01:32;;;;;;;4.43;2.65;;;-0.30;78.90;;;;;;5054875;28;20025;-79
2023/03/02 09:03:59;;;;;;;8.52;3.33;;;-0.40;78.70;;;;;;5040350;28;20017;-80
2023/03/02 09:06:26;;;;;;;6.03;2.92;;;-0.40;78.80;;;;;;5039506;28;20028;-79
2023/03/02 09:08:52;;;;;;;7.75;4.35;;;-0.50;78.90;;;;;;5053949;28;20498;-79
2023/03/02 09:11:18;;;;;;;6.20;2.65;;;-0.60;79.40;;;;;;5044515;28;20025;-79
2023/03/02 09:13:44;;;;;;;5.10;2.78;;;-0.50;79.80;;;;;;5035431;28;20045;-78
2023/03/02 09:16:11;;;;;;;3.22;2.50;;;-0.40;79.60;;;;;;5052754;28;20036;-79
2023/03/02 09:18:37;;;;;;;3.50;2.30;;;-0.40;78.90;;;;;;5044952;28;20021;-79
2023/03/02 09:21:04;;;;;;;5.72;2.28;;;-0.20;78.00;;;;;;5028613;28;20050;-80
2023/03/02 09:23:30;;;;;;;3.85;2.40;;;-0.20;78.00;;;;;;5035289;28;20035;-79
2023/03/02 09:25:56;;;;;;;2.90;1.85;;;-0.20;78.10;;;;;;5038177;28;20136;-80
2023/03/02 09:28:22;;;;;;;3.63;2.28;;;0.00;78.50;;;;;;5039642;28;20029;-79
2023/03/02 09:30:53;;;;;;;3.45;1.95;;;0.20;78.00;;;;;;5054580;28;20021;-80
2023/03/02 09:33:20;;;;;;;3.13;1.80;;;0.20;78.00;;;;;;5035815;28;20543;-79
2023/03/02 09:35:46;;;;;;;3.87;2.07;;;0.50;78.00;;;;;;5034940;28;20048;-80
2023/03/02 09:38:17;;;;;;;3.42;1.98;;;0.50;76.50;;;;;;5049065;28;20032;-78
2023/03/02 09:41:14;;;;;;;4.82;2.63;;;0.40;75.70;;;;;;5053038;28;20028;-79
2023/03/02 09:43:52;;;;;;;4.60;2.17;;;0.30;76.00;;;;;;5023882;28;20053;-79
2023/03/02 09:46:43;;;;;;;3.13;2.38;;;0.50;76.60;;;;;;5051661;28;20037;-79
2023/03/02 09:49:17;;;;;;;3.42;1.92;;;0.50;75.90;;;;;;5049099;28;20021;-80
2023/03/02 09:51:54;;;;;;;4.00;2.05;;;0.70;74.80;;;;;;5043855;28;20055;-78
2023/03/02 09:54:23;;;;;;;;;;;0.60;74.00;;;;;;5052836;28;20039;-80
2023/03/02 09:56:58;;;;;;;7.07;3.05;;;0.50;74.80;;;;;;5052854;28;19908;-80
2023/03/02 09:59:37;;;;;;;4.78;2.15;;;0.30;74.90;;;;;;5051144;28;20020;-79
2023/03/02 10:02:27;;;;;;;5.32;1.92;;;0.30;75.80;;;;;;5037204;28;20029;-80
2023/03/02 10:04:57;;;;;;;4.25;2.10;;;0.50;74.90;;;;;;5030763;28;20036;-81
2023/03/02 10:07:32;;;;;;;2.50;1.80;;;0.50;74.20;;;;;;5059709;28;20058;-80
2023/03/02 10:10:08;;;;;;;3.65;1.75;;;0.60;73.50;;;;;;5012894;28;20022;-79
2023/03/02 10:12:51;;;;;;;4.47;1.90;;;0.60;73.50;;;;;;5055812;28;20024;-80
2023/03/02 10:15:52;;;;;;;2.38;1.23;;;1.00;73.90;;;;;;5050853;28;20025;-79
2023/03/02 10:18:28;;;;;;;3.50;2.78;;;1.40;71.90;;;;;;5011035;28;20048;-79
2023/03/02 10:21:28;;;;;;;2.28;1.70;;;1.70;72.00;;;;;;5056343;28;20061;-81
2023/03/02 10:24:50;;;;;;;6.35;2.85;;;1.90;70.90;;;;;;5041593;28;20459;-79
2023/03/02 10:27:23;;;;;;;6.00;3.45;;;1.80;71.10;;;;;;5029305;28;20056;-80
2023/03/02 10:30:02;;;;;;;6.25;1.88;;;1.80;70.50;;;;;;5054847;28;20033;-80
2023/03/02 10:32:35;;;;;;;3.63;1.60;;;1.70;70.40;;;;;;5045973;28;20093;-79
2023/03/02 10:35:15;;;;;;;2.25;1.60;;;1.70;69.70;;;;;;5052314;28;20041;-79
2023/03/02 10:37:41;;;;;;;2.65;1.80;;;1.60;70.20;;;;;;5029413;28;20028;-79
2023/03/02 10:40:24;;;;;;;2.67;2.00;;;1.50;69.30;;;;;;5057086;28;20029;-78
2023/03/02 10:42:50;;;;;;;3.38;2.50;;;1.30;69.80;;;;;;5056864;28;20040;-78
2023/03/02 10:45:29;;;;;;;4.30;1.38;;;1.20;70.00;;;;;;5039664;28;20029;-80
2023/03/02 10:48:03;;;;;;;4.15;1.98;;;1.10;70.30;;;;;;5023427;28;20051;-80
2023/03/02 10:50:30;;;;;;;4.78;2.75;;;0.90;70.30;;;;;;5049407;28;20051;-80
2023/03/02 10:52:59;;;;;;;3.28;2.20;;;0.60;70.80;;;;;;5028136;28;20036;-81
2023/03/02 10:55:25;;;;;;;3.38;2.42;;;0.50;71.40;;;;;;5044041;28;20024;-79
2023/03/02 10:58:04;;;;;;;5.22;1.88;;;0.50;72.20;;;;;;5058232;28;20104;-80
2023/03/02 11:00:32;;;;;;;4.90;2.10;;;0.60;72.40;;;;;;5058315;28;20032;-80
2023/03/02 11:02:59;;;;;;;;;;;0.50;72.10;;;;;;5049351;28;20025;-80
2023/03/02 11:05:30;;;;;;;;;;;0.30;72.50;;;;;;5057710;28;19909;-78
2023/03/02 11:08:08;;;;;;;3.50;1.65;;;0.20;73.00;;;;;;5060848;28;19917;-80
2023/03/02 11:10:59;;;;;;;9.43;2.63;;;0.30;73.50;;;;;;5036629;28;20025;-79
2023/03/02 11:13:27;;;;;;;7.18;2.65;;;0.60;73.80;;;;;;5015278;28;20486;-79
2023/03/02 11:16:16;;;;;;;7.18;3.03;;;0.70;73.60;;;;;;5057791;28;20055;-80
2023/03/02 11:18:51;;;;;;;6.03;2.75;;;0.70;73.70;;;;;;4997910;28;20087;-79
2023/03/02 11:21:34;;;;;;;5.75;3.30;;;0.60;73.30;;;;;;5050686;28;20395;-79
2023/03/02 11:24:28;;;;;;;1.92;1.23;;;0.70;73.90;;;;;;5031554;28;20485;-80
2023/03/02 11:27:28;;;;;;;3.03;2.15;;;0.60;72.60;;;;;;5023427;28;20075;-80
2023/03/02 11:30:03;;;;;;;2.38;1.70;;;0.30;73.70;;;;;;5054186;28;20482;-80
2023/03/02 11:32:47;;;;;;;8.43;2.78;;;0.40;74.20;;;;;;5056538;28;20120;-80
2023/03/02 11:35:14;;;;;;;3.33;2.60;;;0.30;74.10;;;;;;5037490;28;20557;-80
2023/03/02 11:37:53;;;;;;;2.17;1.67;;;0.30;74.60;;;;;;5042754;28;20408;-79
2023/03/02 11:40:42;;;;;;;2.17;1.65;;;0.20;74.30;;;;;;5056693;28;20440;-79
2023/03/02 11:43:10;;;;;;;6.10;3.28;;;0.30;75.00;;;;;;5036954;28;20022;-77
2023/03/02 11:46:02;;;;;;;3.17;1.55;;;0.40;75.20;;;;;;5050724;28;20083;-79
2023/03/02 11:49:00;;;;;;;4.88;2.70;;;0.70;74.80;;;;;;5048569;28;20479;-79
2023/03/02 11:51:29;;;;;;;2.63;2.42;;;0.80;74.40;;;;;;5017739;28;20092;-79
2023/03/02 11:54:04;;;;;;;3.83;2.00;;;0.60;73.60;;;;;;5039133;28;20032;-79
2023/03/02 11:56:37;;;;;;;8.30;2.92;;;0.50;74.40;;;;;;5055190;28;20070;-79
2023/03/02 11:59:09;;;;;;;6.03;3.40;;;0.50;74.80;;;;;;5041594;28;20442;-79
2023/03/02 12:01:37;;;;;;;2.85;2.10;;;0.50;75.50;;;;;;5054639;28;20092;-79
2023/03/02 12:04:23;;;;;;;2.75;1.90;;;0.60;75.20;;;;;;5037157;28;20074;-79
2023/03/02 12:06:49;;;;;;;5.22;2.17;;;0.80;75.00;;;;;;5055303;28;20037;-80
2023/03/02 12:09:23;;;;;;;6.47;2.35;;;0.70;74.60;;;;;;5053353;28;20493;-78
2023/03/02 12:12:21;;;;;;;3.80;2.05;;;0.50;74.60;;;;;;5025249;28;20033;-80
2023/03/02 12:14:47;;;;;;;2.85;1.83;;;0.30;75.00;;;;;;4964875;28;20108;-79
2023/03/02 12:17:29;;;;;;;4.38;2.75;;;0.30;75.50;;;;;;5043393;28;20069;-80
2023/03/02 12:20:23;;;;;;;2.72;2.10;;;0.30;76.00;;;;;;5035311;28;20413;-78
2023/03/02 12:22:49;;;;;;;5.35;2.50;;;0.30;75.70;;;;;;5026755;28;20537;-80
2023/03/02 12:25:18;;;;;;;3.33;2.42;;;0.30;75.90;;;;;;5053298;28;20033;-79
2023/03/02 12:27:45;;;;;;;3.20;1.80;;;0.30;76.30;;;;;;5053754;28;20445;-81
2023/03/02 12:30:14;;;;;;;3.47;2.03;;;0.20;75.90;;;;;;5040017;28;20051;-81
2023/03/02 12:32:44;;;;;;;2.88;2.03;;;0.00;76.50;;;;;;5038100;28;20478;-80
2023/03/02 12:35:17;;;;;;;3.63;2.35;;;0.10;77.00;;;;;;5052107;28;20487;-80
2023/03/02 12:37:55;;;;;;;2.75;2.10;;;0.20;77.10;;;;;;5054434;28;20051;-78
2023/03/02 12:41:03;;;;;;;3.95;2.58;;;0.10;76.60;;;;;;5054325;28;20374;-80
2023/03/02 12:43:33;;;;;;;3.63;2.50;;;0.00;77.30;;;;;;5043159;28;20037;-80
2023/03/02 12:46:31;;;;;;;5.40;2.92;;;0.00;77.40;;;;;;5059802;28;20032;-79
2023/03/02 12:49:17;;;;;;;4.93;2.95;;;-0.10;78.00;;;;;;5053790;28;20029;-79
2023/03/02 12:51:51;;;;;;;5.63;3.13;;;0.00;78.70;;;;;;5045723;28;20543;-80
2023/03/02 12:54:28;;;;;;;5.10;3.05;;;0.10;78.70;;;;;;5040090;28;20100;-79
2023/03/02 12:57:15;;;;;;;10.95;3.35;;;0.10;78.70;;;;;;5045643;28;20534;-80
2023/03/02 12:59:41;;;;;;;;;;;0.00;78.60;;;;;;5042701;28;20048;-80
2023/03/02 13:02:19;;;;;;;5.57;3.88;;;-0.10;78.70;;;;;;5055342;28;19909;-79
2023/03/02 13:04:53;;;;;;;3.65;2.13;;;-0.10;79.10;;;;;;5048153;28;20141;-80
2023/03/02 13:07:24;;;;;;;5.35;2.92;;;-0.30;79.20;;;;;;5046631;28;20021;-79
2023/03/02 13:09:51;;;;;;;5.60;3.38;;;-0.50;79.80;;;;;;5053918;28;20045;-79
2023/03/02 13:12:18;;;;;;;9.05;3.40;;;-0.50;80.50;;;;;;5054254;28;20396;-79
2023/03/02 13:14:54;;;;;;;4.65;2.83;;;-0.40;81.00;;;;;;5054480;28;20037;-80
2023/03/02 13:17:23;;;;;;;2.65;2.05;;;-0.20;81.00;;;;;;5053688;28;20036;-80
2023/03/02 13:19:49;;;;;;;9.00;3.40;;;-0.10;80.60;;;;;;5047076;28;20061;-79